Accueil
METAR-TAF:

METAR-TAF

Aéroports :

Madrid-Torrejón, Espagne

latitude: 40-29N, longitude: 003-27W, altitude: 607 m

Observation

Le bulletin a été fait il y a 48 minutes, à 06:00 UTC
Vent 5 kt de nord-est
Température 0°C
Humidité 93%
Pression 1032 hPa
Visibilité 10 km ou plus
pas de nuages en-dessous de 1500 mètres et pas de cumulonimbus.

METAR: LETO 190600Z 04005KT CAVOK M00/M01 Q1032 NOSIG

Heure: 07:48 (06:48 UTC)

Prévision

Le bulletin a été fait il y a 1 heure et 48 minutes, à 05:00 UTC
Prévision valable du 19 à 06 UTC au 20 à 06 UTC
Vent 7 kt de nord/nord-est
Visibilité 10 km ou plus
pas de nuages en-dessous de 1500 mètres et pas de cumulonimbus.

TAF: LETO 190500Z 1906/2006 03007KT CAVOK TX16/1915Z TN01/1907Z

Observations et prévisions météorologiques de plus de 4000 aéroports (messages METAR et TAF).

Les stations disponibles sont représentées par des disques jaunes et rouges sur la carte.

Passer la souris dessus pour voir le nom de la station.

Cliquer dessus pour voir les observations et prévisions météorologiques.

Pour changer de carte: cliquez sur les boutons verts avec une croix noire pour zoomer, sur le bouton vert avec un tiret pour effectuer un zoom arrière, ou sur les flèches vertes pour les cartes adjacentes.


METAR-TAF: